sensor_id;sensor_type;location;lat;lon;timestamp;pressure;altitude;pressure_sealevel;temperature;humidity
71948;BME280;63257;55.082;38.772;2023-02-01T00:00:20;98779.81;;;0.23;72.40
71948;BME280;63257;55.082;38.772;2023-02-01T00:02:47;98773.41;;;0.05;72.79
71948;BME280;63257;55.082;38.772;2023-02-01T00:05:13;98770.00;;;0.03;73.60
71948;BME280;63257;55.082;38.772;2023-02-01T00:07:39;98766.41;;;0.08;73.42
71948;BME280;63257;55.082;38.772;2023-02-01T00:10:05;98769.75;;;0.12;74.09
71948;BME280;63257;55.082;38.772;2023-02-01T00:12:32;98773.00;;;0.19;73.57
71948;BME280;63257;55.082;38.772;2023-02-01T00:14:58;98774.84;;;0.15;73.68
71948;BME280;63257;55.082;38.772;2023-02-01T00:17:24;98772.59;;;0.04;73.85
71948;BME280;63257;55.082;38.772;2023-02-01T00:19:50;98782.41;;;-0.07;74.62
71948;BME280;63257;55.082;38.772;2023-02-01T00:22:16;98763.22;;;-0.02;74.44
71948;BME280;63257;55.082;38.772;2023-02-01T00:24:42;98774.25;;;0.05;74.39
71948;BME280;63257;55.082;38.772;2023-02-01T00:27:08;98770.63;;;0.11;74.24
71948;BME280;63257;55.082;38.772;2023-02-01T00:29:34;98772.47;;;0.07;74.41
71948;BME280;63257;55.082;38.772;2023-02-01T00:32:00;98754.31;;;0.07;74.13
71948;BME280;63257;55.082;38.772;2023-02-01T00:34:26;98759.41;;;0.10;74.01
71948;BME280;63257;55.082;38.772;2023-02-01T00:36:52;98773.81;;;0.21;73.50
71948;BME280;63257;55.082;38.772;2023-02-01T00:39:18;98777.00;;;0.30;73.27
71948;BME280;63257;55.082;38.772;2023-02-01T00:41:44;98775.97;;;0.36;73.33
71948;BME280;63257;55.082;38.772;2023-02-01T00:44:10;98751.09;;;0.29;72.29
71948;BME280;63257;55.082;38.772;2023-02-01T00:46:36;98774.09;;;0.40;72.26
71948;BME280;63257;55.082;38.772;2023-02-01T00:49:02;98774.25;;;0.35;72.32
71948;BME280;63257;55.082;38.772;2023-02-01T00:51:29;98759.63;;;0.32;72.29
71948;BME280;63257;55.082;38.772;2023-02-01T00:53:55;98781.97;;;0.37;72.15
71948;BME280;63257;55.082;38.772;2023-02-01T00:56:22;98773.97;;;0.44;71.74
71948;BME280;63257;55.082;38.772;2023-02-01T00:58:48;98775.75;;;0.42;71.92
71948;BME280;63257;55.082;38.772;2023-02-01T01:01:26;98777.47;;;0.43;71.83
71948;BME280;63257;55.082;38.772;2023-02-01T01:03:54;98766.50;;;0.33;72.22
71948;BME280;63257;55.082;38.772;2023-02-01T01:06:23;98774.41;;;0.30;72.14
71948;BME280;63257;55.082;38.772;2023-02-01T01:08:52;98758.22;;;0.22;72.87
71948;BME280;63257;55.082;38.772;2023-02-01T01:11:26;98783.19;;;0.26;72.76
71948;BME280;63257;55.082;38.772;2023-02-01T01:13:54;98770.94;;;0.30;72.54
71948;BME280;63257;55.082;38.772;2023-02-01T01:16:21;98782.22;;;0.29;72.33
71948;BME280;63257;55.082;38.772;2023-02-01T01:18:48;98777.03;;;0.29;72.73
71948;BME280;63257;55.082;38.772;2023-02-01T01:21:15;98773.56;;;0.28;72.72
71948;BME280;63257;55.082;38.772;2023-02-01T01:23:42;98785.16;;;0.46;72.18
71948;BME280;63257;55.082;38.772;2023-02-01T01:26:11;98783.53;;;0.42;72.02
71948;BME280;63257;55.082;38.772;2023-02-01T01:28:39;98796.19;;;0.53;71.88
71948;BME280;63257;55.082;38.772;2023-02-01T01:31:10;98774.97;;;0.40;71.54
71948;BME280;63257;55.082;38.772;2023-02-01T01:33:36;98784.31;;;0.46;71.84
71948;BME280;63257;55.082;38.772;2023-02-01T01:36:05;98801.28;;;0.56;71.31
71948;BME280;63257;55.082;38.772;2023-02-01T01:38:31;98794.03;;;0.39;71.52
71948;BME280;63257;55.082;38.772;2023-02-01T01:40:58;98789.66;;;0.40;72.13
71948;BME280;63257;55.082;38.772;2023-02-01T01:43:24;98794.03;;;0.39;72.16
71948;BME280;63257;55.082;38.772;2023-02-01T01:45:52;98791.88;;;0.54;72.01
71948;BME280;63257;55.082;38.772;2023-02-01T01:48:28;98794.50;;;0.52;71.27
71948;BME280;63257;55.082;38.772;2023-02-01T01:51:03;98770.25;;;0.25;72.09
71948;BME280;63257;55.082;38.772;2023-02-01T01:53:38;98799.78;;;0.49;71.63
71948;BME280;63257;55.082;38.772;2023-02-01T01:56:07;98800.69;;;0.48;72.20
71948;BME280;63257;55.082;38.772;2023-02-01T01:58:34;98802.81;;;0.35;72.29
71948;BME280;63257;55.082;38.772;2023-02-01T02:00:59;98797.59;;;0.35;72.19
71948;BME280;63257;55.082;38.772;2023-02-01T02:03:33;98795.91;;;0.34;72.46
71948;BME280;63257;55.082;38.772;2023-02-01T02:06:02;98792.41;;;0.35;71.94
71948;BME280;63257;55.082;38.772;2023-02-01T02:08:29;98789.41;;;0.21;72.46
71948;BME280;63257;55.082;38.772;2023-02-01T02:10:55;98791.94;;;0.22;72.74
71948;BME280;63257;55.082;38.772;2023-02-01T02:13:40;98786.88;;;0.17;72.67
71948;BME280;63257;55.082;38.772;2023-02-01T02:18:48;98793.63;;;0.23;72.50
71948;BME280;63257;55.082;38.772;2023-02-01T02:27:21;98780.78;;;0.19;72.41
71948;BME280;63257;55.082;38.772;2023-02-01T02:41:48;98795.94;;;0.03;72.46
71948;BME280;63257;55.082;38.772;2023-02-01T02:47:10;98803.56;;;0.09;72.60
71948;BME280;63257;55.082;38.772;2023-02-01T02:50:02;98808.84;;;0.06;72.85
71948;BME280;63257;55.082;38.772;2023-02-01T02:53:00;98802.63;;;0.11;72.81
71948;BME280;63257;55.082;38.772;2023-02-01T02:55:52;98809.19;;;0.23;72.17
71948;BME280;63257;55.082;38.772;2023-02-01T02:58:19;98810.22;;;0.17;72.11
71948;BME280;63257;55.082;38.772;2023-02-01T03:01:05;98792.84;;;0.21;71.66
71948;BME280;63257;55.082;38.772;2023-02-01T03:03:50;98801.56;;;0.19;72.38
71948;BME280;63257;55.082;38.772;2023-02-01T03:06:36;98785.00;;;0.23;71.76
71948;BME280;63257;55.082;38.772;2023-02-01T03:09:08;98789.09;;;0.30;71.76
71948;BME280;63257;55.082;38.772;2023-02-01T03:11:36;98808.66;;;0.42;70.97
71948;BME280;63257;55.082;38.772;2023-02-01T03:14:22;98784.72;;;0.32;71.33
71948;BME280;63257;55.082;38.772;2023-02-01T03:16:57;98791.59;;;0.35;70.85
71948;BME280;63257;55.082;38.772;2023-02-01T03:19:29;98789.91;;;0.32;70.67
71948;BME280;63257;55.082;38.772;2023-02-01T03:22:06;98794.22;;;0.33;70.87
71948;BME280;63257;55.082;38.772;2023-02-01T03:24:46;98813.63;;;0.49;70.96
71948;BME280;63257;55.082;38.772;2023-02-01T03:32:40;98819.47;;;0.28;71.28
71948;BME280;63257;55.082;38.772;2023-02-01T03:38:23;98819.41;;;0.29;71.81
71948;BME280;63257;55.082;38.772;2023-02-01T03:40:59;98831.25;;;0.38;71.28
71948;BME280;63257;55.082;38.772;2023-02-01T03:43:30;98829.16;;;0.51;70.84
71948;BME280;63257;55.082;38.772;2023-02-01T03:46:02;98823.88;;;0.54;70.44
71948;BME280;63257;55.082;38.772;2023-02-01T03:48:31;98829.94;;;0.53;70.43
71948;BME280;63257;55.082;38.772;2023-02-01T03:51:01;98832.50;;;0.55;70.31
71948;BME280;63257;55.082;38.772;2023-02-01T03:53:30;98830.00;;;0.52;70.36
71948;BME280;63257;55.082;38.772;2023-02-01T03:55:57;98833.69;;;0.44;70.72
71948;BME280;63257;55.082;38.772;2023-02-01T03:58:24;98823.56;;;0.35;71.20
71948;BME280;63257;55.082;38.772;2023-02-01T04:00:56;98813.81;;;0.43;70.85
71948;BME280;63257;55.082;38.772;2023-02-01T04:03:23;98833.44;;;0.52;70.63
71948;BME280;63257;55.082;38.772;2023-02-01T04:05:49;98826.53;;;0.53;70.32
71948;BME280;63257;55.082;38.772;2023-02-01T04:08:15;98821.44;;;0.49;70.38
71948;BME280;63257;55.082;38.772;2023-02-01T04:10:41;98841.91;;;0.59;70.62
71948;BME280;63257;55.082;38.772;2023-02-01T04:13:07;98833.41;;;0.54;70.51
71948;BME280;63257;55.082;38.772;2023-02-01T04:15:34;98835.16;;;0.53;70.16
71948;BME280;63257;55.082;38.772;2023-02-01T04:18:00;98847.03;;;0.62;70.32
71948;BME280;63257;55.082;38.772;2023-02-01T04:20:27;98843.81;;;0.54;70.52
71948;BME280;63257;55.082;38.772;2023-02-01T04:22:54;98850.34;;;0.65;70.29
71948;BME280;63257;55.082;38.772;2023-02-01T04:25:20;98855.50;;;0.67;69.98
71948;BME280;63257;55.082;38.772;2023-02-01T04:27:47;98857.22;;;0.68;70.42
71948;BME280;63257;55.082;38.772;2023-02-01T04:30:13;98847.03;;;0.62;69.84
71948;BME280;63257;55.082;38.772;2023-02-01T04:32:40;98848.81;;;0.60;70.51
71948;BME280;63257;55.082;38.772;2023-02-01T04:35:07;98860.53;;;0.73;69.84
71948;BME280;63257;55.082;38.772;2023-02-01T04:37:33;98870.81;;;0.76;69.68
71948;BME280;63257;55.082;38.772;2023-02-01T04:39:59;98866.50;;;0.75;70.30
71948;BME280;63257;55.082;38.772;2023-02-01T04:42:26;98854.63;;;0.68;70.02
71948;BME280;63257;55.082;38.772;2023-02-01T04:44:52;98877.44;;;0.87;69.83
71948;BME280;63257;55.082;38.772;2023-02-01T04:47:19;98876.53;;;0.88;69.66
71948;BME280;63257;55.082;38.772;2023-02-01T04:49:45;98870.38;;;0.90;69.81
71948;BME280;63257;55.082;38.772;2023-02-01T04:52:13;98881.59;;;0.92;69.60
71948;BME280;63257;55.082;38.772;2023-02-01T04:54:39;98872.19;;;0.88;69.64
71948;BME280;63257;55.082;38.772;2023-02-01T04:57:06;98879.22;;;0.84;70.00
71948;BME280;63257;55.082;38.772;2023-02-01T04:59:31;98882.72;;;0.83;70.09
71948;BME280;63257;55.082;38.772;2023-02-01T05:01:58;98863.41;;;0.64;69.86
71948;BME280;63257;55.082;38.772;2023-02-01T05:04:24;98873.00;;;0.60;70.51
71948;BME280;63257;55.082;38.772;2023-02-01T05:06:49;98884.63;;;0.77;70.41
71948;BME280;63257;55.082;38.772;2023-02-01T05:09:15;98884.25;;;0.89;69.51
71948;BME280;63257;55.082;38.772;2023-02-01T05:11:42;98888.84;;;0.81;69.32
71948;BME280;63257;55.082;38.772;2023-02-01T05:14:26;98883.09;;;0.71;70.25
71948;BME280;63257;55.082;38.772;2023-02-01T05:16:52;98870.72;;;0.79;69.83
71948;BME280;63257;55.082;38.772;2023-02-01T05:19:18;98895.47;;;0.91;69.51
71948;BME280;63257;55.082;38.772;2023-02-01T05:21:44;98885.19;;;0.88;69.51
71948;BME280;63257;55.082;38.772;2023-02-01T05:24:10;98891.22;;;0.89;69.53
71948;BME280;63257;55.082;38.772;2023-02-01T05:26:42;98894.53;;;0.94;69.34
71948;BME280;63257;55.082;38.772;2023-02-01T05:29:10;98889.44;;;0.91;69.80
71948;BME280;63257;55.082;38.772;2023-02-01T05:31:37;98892.22;;;0.84;69.16
71948;BME280;63257;55.082;38.772;2023-02-01T05:34:03;98893.19;;;0.80;69.50
71948;BME280;63257;55.082;38.772;2023-02-01T05:36:30;98891.31;;;0.86;69.40
71948;BME280;63257;55.082;38.772;2023-02-01T05:38:56;98892.25;;;0.83;69.34
71948;BME280;63257;55.082;38.772;2023-02-01T05:41:22;98895.81;;;0.80;69.64
71948;BME280;63257;55.082;38.772;2023-02-01T05:43:48;98899.84;;;0.91;69.35
71948;BME280;63257;55.082;38.772;2023-02-01T05:46:15;98872.25;;;0.87;69.11
71948;BME280;63257;55.082;38.772;2023-02-01T05:48:41;98889.44;;;0.91;68.71
71948;BME280;63257;55.082;38.772;2023-02-01T05:51:09;98891.78;;;0.98;68.87
71948;BME280;63257;55.082;38.772;2023-02-01T05:53:35;98898.13;;;0.90;69.12
71948;BME280;63257;55.082;38.772;2023-02-01T05:56:01;98898.97;;;0.90;69.06
71948;BME280;63257;55.082;38.772;2023-02-01T05:58:29;98901.38;;;0.96;69.62
71948;BME280;63257;55.082;38.772;2023-02-01T06:00:55;98895.44;;;0.93;69.21
71948;BME280;63257;55.082;38.772;2023-02-01T06:03:21;98898.03;;;0.93;69.24
71948;BME280;63257;55.082;38.772;2023-02-01T06:05:47;98896.25;;;0.93;69.61
71948;BME280;63257;55.082;38.772;2023-02-01T06:08:14;98899.47;;;1.01;68.78
71948;BME280;63257;55.082;38.772;2023-02-01T06:10:41;98888.72;;;0.86;69.13
71948;BME280;63257;55.082;38.772;2023-02-01T06:13:07;98900.91;;;0.83;68.70
71948;BME280;63257;55.082;38.772;2023-02-01T06:15:34;98899.78;;;0.92;68.85
71948;BME280;63257;55.082;38.772;2023-02-01T06:18:01;98886.75;;;0.94;68.59
71948;BME280;63257;55.082;38.772;2023-02-01T06:20:26;98898.47;;;1.07;68.59
71948;BME280;63257;55.082;38.772;2023-02-01T06:22:53;98883.09;;;0.99;68.70
71948;BME280;63257;55.082;38.772;2023-02-01T06:25:19;98906.06;;;1.13;68.05
71948;BME280;63257;55.082;38.772;2023-02-01T06:27:46;98901.84;;;1.09;68.42
71948;BME280;63257;55.082;38.772;2023-02-01T06:30:13;98893.88;;;1.15;68.93
71948;BME280;63257;55.082;38.772;2023-02-01T06:32:43;98908.47;;;1.20;69.26
71948;BME280;63257;55.082;38.772;2023-02-01T06:35:09;98912.97;;;1.14;68.48
71948;BME280;63257;55.082;38.772;2023-02-01T06:37:41;98906.72;;;1.20;68.64
71948;BME280;63257;55.082;38.772;2023-02-01T06:40:08;98917.81;;;1.25;68.05
71948;BME280;63257;55.082;38.772;2023-02-01T06:42:34;98927.91;;;1.34;67.93
71948;BME280;63257;55.082;38.772;2023-02-01T06:45:00;98905.13;;;1.16;67.79
71948;BME280;63257;55.082;38.772;2023-02-01T06:47:26;98927.31;;;1.26;68.33
71948;BME280;63257;55.082;38.772;2023-02-01T06:49:53;98922.81;;;1.31;67.60
71948;BME280;63257;55.082;38.772;2023-02-01T06:52:18;98918.66;;;1.26;68.10
71948;BME280;63257;55.082;38.772;2023-02-01T06:54:44;98921.09;;;1.32;67.30
71948;BME280;63257;55.082;38.772;2023-02-01T06:57:11;98941.91;;;1.30;67.85
71948;BME280;63257;55.082;38.772;2023-02-01T06:59:37;98935.03;;;1.29;67.68
71948;BME280;63257;55.082;38.772;2023-02-01T07:06:09;98946.97;;;1.35;67.06
71948;BME280;63257;55.082;38.772;2023-02-01T07:08:36;98946.78;;;1.41;66.82
71948;BME280;63257;55.082;38.772;2023-02-01T07:11:04;98955.50;;;1.39;66.85
71948;BME280;63257;55.082;38.772;2023-02-01T07:13:30;98952.13;;;1.37;66.87
71948;BME280;63257;55.082;38.772;2023-02-01T07:16:03;98934.97;;;1.31;66.83
71948;BME280;63257;55.082;38.772;2023-02-01T07:18:30;98954.56;;;1.41;66.69
71948;BME280;63257;55.082;38.772;2023-02-01T07:20:57;98953.84;;;1.38;66.86
71948;BME280;63257;55.082;38.772;2023-02-01T07:28:07;98962.38;;;1.41;66.82
71948;BME280;63257;55.082;38.772;2023-02-01T07:30:33;98964.09;;;1.42;66.80
71948;BME280;63257;55.082;38.772;2023-02-01T07:32:59;98959.94;;;1.37;66.93
71948;BME280;63257;55.082;38.772;2023-02-01T07:35:27;98960.66;;;1.42;66.57
71948;BME280;63257;55.082;38.772;2023-02-01T07:37:54;98962.31;;;1.44;66.66
71948;BME280;63257;55.082;38.772;2023-02-01T07:40:20;98957.66;;;1.54;66.09
71948;BME280;63257;55.082;38.772;2023-02-01T07:42:55;98939.63;;;1.48;66.41
71948;BME280;63257;55.082;38.772;2023-02-01T07:45:21;98955.72;;;1.61;65.45
71948;BME280;63257;55.082;38.772;2023-02-01T07:47:48;98968.13;;;1.51;66.03
71948;BME280;63257;55.082;38.772;2023-02-01T07:50:14;98963.41;;;1.64;65.58
71948;BME280;63257;55.082;38.772;2023-02-01T07:52:41;98958.31;;;1.61;66.30
71948;BME280;63257;55.082;38.772;2023-02-01T07:55:07;98960.75;;;1.65;65.73
71948;BME280;63257;55.082;38.772;2023-02-01T07:57:33;98957.59;;;1.56;66.03
71948;BME280;63257;55.082;38.772;2023-02-01T07:59:59;98954.84;;;1.60;65.79
71948;BME280;63257;55.082;38.772;2023-02-01T08:02:44;98950.91;;;1.48;65.79
71948;BME280;63257;55.082;38.772;2023-02-01T08:05:10;98946.38;;;1.53;66.32
71948;BME280;63257;55.082;38.772;2023-02-01T08:07:35;98927.69;;;1.42;66.16
71948;BME280;63257;55.082;38.772;2023-02-01T08:10:01;98956.59;;;1.60;65.62
71948;BME280;63257;55.082;38.772;2023-02-01T08:12:28;98944.44;;;1.60;65.64
71948;BME280;63257;55.082;38.772;2023-02-01T08:14:54;98952.94;;;1.65;65.54
71948;BME280;63257;55.082;38.772;2023-02-01T08:17:22;98961.63;;;1.64;65.80
71948;BME280;63257;55.082;38.772;2023-02-01T08:19:48;98955.38;;;1.70;66.03
71948;BME280;63257;55.082;38.772;2023-02-01T08:22:14;98947.75;;;1.65;65.64
71948;BME280;63257;55.082;38.772;2023-02-01T08:24:39;98951.94;;;1.69;65.61
71948;BME280;63257;55.082;38.772;2023-02-01T08:27:07;98949.56;;;1.62;65.63
71948;BME280;63257;55.082;38.772;2023-02-01T08:29:33;98942.38;;;1.70;65.19
71948;BME280;63257;55.082;38.772;2023-02-01T08:40:21;98948.22;;;1.77;65.62
71948;BME280;63257;55.082;38.772;2023-02-01T08:42:47;98952.28;;;1.85;65.25
71948;BME280;63257;55.082;38.772;2023-02-01T08:45:21;98952.28;;;1.85;64.96
71948;BME280;63257;55.082;38.772;2023-02-01T08:47:47;98949.31;;;1.96;64.66
71948;BME280;63257;55.082;38.772;2023-02-01T08:50:14;98951.91;;;1.96;64.69
71948;BME280;63257;55.082;38.772;2023-02-01T08:52:40;98946.56;;;2.01;64.40
71948;BME280;63257;55.082;38.772;2023-02-01T08:55:06;98936.03;;;2.04;63.83
71948;BME280;63257;55.082;38.772;2023-02-01T08:57:33;98938.47;;;2.09;63.35
71948;BME280;63257;55.082;38.772;2023-02-01T08:59:59;98934.13;;;2.09;63.66
71948;BME280;63257;55.082;38.772;2023-02-01T09:02:26;98936.41;;;2.18;63.33
71948;BME280;63257;55.082;38.772;2023-02-01T09:04:52;98950.97;;;2.24;63.48
71948;BME280;63257;55.082;38.772;2023-02-01T09:07:19;98937.47;;;2.13;64.07
71948;BME280;63257;55.082;38.772;2023-02-01T09:09:45;98923.59;;;2.12;63.98
71948;BME280;63257;55.082;38.772;2023-02-01T09:12:11;98943.88;;;2.28;63.36
71948;BME280;63257;55.082;38.772;2023-02-01T09:14:38;98926.97;;;2.16;63.59
71948;BME280;63257;55.082;38.772;2023-02-01T09:17:04;98930.19;;;2.23;63.51
71948;BME280;63257;55.082;38.772;2023-02-01T09:19:31;98936.13;;;2.26;63.46
71948;BME280;63257;55.082;38.772;2023-02-01T09:21:57;98936.31;;;2.22;63.62
71948;BME280;63257;55.082;38.772;2023-02-01T09:24:23;98938.16;;;2.18;63.53
71948;BME280;63257;55.082;38.772;2023-02-01T09:26:49;98938.03;;;2.21;62.93
71948;BME280;63257;55.082;38.772;2023-02-01T09:29:15;98930.19;;;2.23;63.48
71948;BME280;63257;55.082;38.772;2023-02-01T09:31:42;98921.47;;;2.24;63.64
71948;BME280;63257;55.082;38.772;2023-02-01T09:34:08;98915.41;;;2.23;63.12
71948;BME280;63257;55.082;38.772;2023-02-01T09:36:34;98924.50;;;2.36;63.00
71948;BME280;63257;55.082;38.772;2023-02-01T09:39:01;98931.97;;;2.46;63.11
71948;BME280;63257;55.082;38.772;2023-02-01T09:41:55;98921.78;;;2.40;63.04
71948;BME280;63257;55.082;38.772;2023-02-01T09:44:57;98918.91;;;2.47;62.84
71948;BME280;63257;55.082;38.772;2023-02-01T09:47:26;98919.69;;;2.49;62.59
71948;BME280;63257;55.082;38.772;2023-02-01T09:52:52;98920.81;;;2.42;62.60
71948;BME280;63257;55.082;38.772;2023-02-01T09:55:26;98914.72;;;2.43;62.14
71948;BME280;63257;55.082;38.772;2023-02-01T09:57:59;98911.28;;;2.41;62.30
71948;BME280;63257;55.082;38.772;2023-02-01T10:00:35;98916.38;;;2.44;62.61
71948;BME280;63257;55.082;38.772;2023-02-01T10:03:03;98919.00;;;2.44;62.63
71948;BME280;63257;55.082;38.772;2023-02-01T10:08:25;98917.97;;;2.48;62.28
71948;BME280;63257;55.082;38.772;2023-02-01T10:11:00;98904.22;;;2.45;62.09
71948;BME280;63257;55.082;38.772;2023-02-01T10:19:21;98908.69;;;2.41;62.47
71948;BME280;63257;55.082;38.772;2023-02-01T10:22:08;98911.63;;;2.32;62.89
71948;BME280;63257;55.082;38.772;2023-02-01T10:24:57;98908.31;;;2.28;62.36
71948;BME280;63257;55.082;38.772;2023-02-01T10:27:33;98907.44;;;2.28;62.51
71948;BME280;63257;55.082;38.772;2023-02-01T10:30:05;98910.09;;;2.26;62.39
71948;BME280;63257;55.082;38.772;2023-02-01T10:32:39;98914.03;;;2.38;62.66
71948;BME280;63257;55.082;38.772;2023-02-01T10:35:17;98908.94;;;2.35;62.83
71948;BME280;63257;55.082;38.772;2023-02-01T10:41:38;98883.91;;;2.31;62.48
71948;BME280;63257;55.082;38.772;2023-02-01T10:44:11;98895.28;;;2.28;62.44
71948;BME280;63257;55.082;38.772;2023-02-01T10:46:38;98882.72;;;2.16;63.29
71948;BME280;63257;55.082;38.772;2023-02-01T10:49:05;98884.94;;;2.25;62.68
71948;BME280;63257;55.082;38.772;2023-02-01T10:51:49;98894.19;;;2.34;62.49
71948;BME280;63257;55.082;38.772;2023-02-01T10:54:20;98885.44;;;2.11;63.19
71948;BME280;63257;55.082;38.772;2023-02-01T10:56:47;98895.44;;;2.24;63.64
71948;BME280;63257;55.082;38.772;2023-02-01T10:59:24;98899.16;;;2.16;64.07
71948;BME280;63257;55.082;38.772;2023-02-01T11:01:58;98857.56;;;1.91;64.14
71948;BME280;63257;55.082;38.772;2023-02-01T11:04:25;98882.38;;;2.00;64.71
71948;BME280;63257;55.082;38.772;2023-02-01T11:07:17;98900.50;;;2.03;64.99
71948;BME280;63257;55.082;38.772;2023-02-01T11:09:50;98894.44;;;2.02;64.73
71948;BME280;63257;55.082;38.772;2023-02-01T11:12:37;98900.50;;;2.03;64.37
71948;BME280;63257;55.082;38.772;2023-02-01T11:15:14;98896.09;;;2.05;64.54
71948;BME280;63257;55.082;38.772;2023-02-01T11:17:45;98887.16;;;2.12;64.32
71948;BME280;63257;55.082;38.772;2023-02-01T11:20:17;98892.69;;;2.28;63.26
71948;BME280;63257;55.082;38.772;2023-02-01T11:22:55;98899.63;;;2.28;63.26
71948;BME280;63257;55.082;38.772;2023-02-01T11:25:23;98891.72;;;2.31;63.06
71948;BME280;63257;55.082;38.772;2023-02-01T11:27:54;98873.88;;;2.20;62.94
71948;BME280;63257;55.082;38.772;2023-02-01T11:30:38;98890.97;;;2.27;62.80
71948;BME280;63257;55.082;38.772;2023-02-01T11:33:12;98893.34;;;2.33;61.88
71948;BME280;63257;55.082;38.772;2023-02-01T11:35:39;98894.78;;;2.42;61.74
71948;BME280;63257;55.082;38.772;2023-02-01T11:38:30;98896.50;;;2.42;61.53
71948;BME280;63257;55.082;38.772;2023-02-01T11:43:58;98906.28;;;2.36;61.32
71948;BME280;63257;55.082;38.772;2023-02-01T11:46:29;98902.91;;;2.33;61.15
71948;BME280;63257;55.082;38.772;2023-02-01T11:48:57;98882.91;;;2.10;61.41
71948;BME280;63257;55.082;38.772;2023-02-01T11:52:30;98910.53;;;2.14;61.83
71948;BME280;63257;55.082;38.772;2023-02-01T12:00:07;98914.81;;;1.91;61.89
71948;BME280;63257;55.082;38.772;2023-02-01T12:02:55;98918.25;;;1.92;61.76
71948;BME280;63257;55.082;38.772;2023-02-01T12:10:53;98931.38;;;1.89;62.65
71948;BME280;63257;55.082;38.772;2023-02-01T12:17:05;98930.72;;;1.82;62.49
71948;BME280;63257;55.082;38.772;2023-02-01T12:25:30;98936.34;;;1.69;63.05
71948;BME280;63257;55.082;38.772;2023-02-01T12:30:46;98951.94;;;1.69;63.22
71948;BME280;63257;55.082;38.772;2023-02-01T12:36:18;98944.25;;;1.66;63.01
71948;BME280;63257;55.082;38.772;2023-02-01T12:44:40;98956.72;;;1.57;63.73
71948;BME280;63257;55.082;38.772;2023-02-01T12:47:26;98955.88;;;1.55;64.03
71948;BME280;63257;55.082;38.772;2023-02-01T12:50:04;98957.03;;;1.46;63.83
71948;BME280;63257;55.082;38.772;2023-02-01T12:52:47;98960.72;;;1.39;64.32
71948;BME280;63257;55.082;38.772;2023-02-01T12:58:01;98957.13;;;1.43;63.81
71948;BME280;63257;55.082;38.772;2023-02-01T13:00:36;98945.78;;;1.45;63.65
71948;BME280;63257;55.082;38.772;2023-02-01T13:06:01;98954.84;;;1.33;64.12
71948;BME280;63257;55.082;38.772;2023-02-01T13:08:40;98961.72;;;1.34;64.31
71948;BME280;63257;55.082;38.772;2023-02-01T13:11:16;98959.50;;;1.22;64.99
71948;BME280;63257;55.082;38.772;2023-02-01T13:14:00;98957.88;;;1.20;64.83
71948;BME280;63257;55.082;38.772;2023-02-01T13:16:46;98963.06;;;1.20;64.70
71948;BME280;63257;55.082;38.772;2023-02-01T13:19:23;98967.41;;;1.19;64.54
71948;BME280;63257;55.082;38.772;2023-02-01T13:21:55;98963.25;;;1.13;64.62
71948;BME280;63257;55.082;38.772;2023-02-01T13:28:26;98964.84;;;1.17;64.74
71948;BME280;63257;55.082;38.772;2023-02-01T13:36:52;98966.97;;;1.05;65.39
71948;BME280;63257;55.082;38.772;2023-02-01T13:39:45;98971.88;;;1.14;65.64
71948;BME280;63257;55.082;38.772;2023-02-01T13:46:23;98968.47;;;1.12;65.14
71948;BME280;63257;55.082;38.772;2023-02-01T13:48:52;98964.06;;;1.14;65.43
71948;BME280;63257;55.082;38.772;2023-02-01T13:51:38;98968.63;;;1.07;65.39
71948;BME280;63257;55.082;38.772;2023-02-01T13:54:07;98967.72;;;1.08;65.63
71948;BME280;63257;55.082;38.772;2023-02-01T13:56:49;98973.84;;;1.07;65.33
71948;BME280;63257;55.082;38.772;2023-02-01T14:05:11;98978.16;;;1.07;66.19
71948;BME280;63257;55.082;38.772;2023-02-01T14:16:18;98991.91;;;0.80;67.12
71948;BME280;63257;55.082;38.772;2023-02-01T14:23:43;98979.91;;;0.76;66.46
71948;BME280;63257;55.082;38.772;2023-02-01T14:26:16;98994.34;;;0.87;66.71
71948;BME280;63257;55.082;38.772;2023-02-01T14:28:47;99004.41;;;0.97;65.88
71948;BME280;63257;55.082;38.772;2023-02-01T14:34:11;98999.34;;;0.93;66.79
71948;BME280;63257;55.082;38.772;2023-02-01T14:36:48;99011.50;;;0.92;66.32
71948;BME280;63257;55.082;38.772;2023-02-01T14:39:27;99019.13;;;0.98;66.05
71948;BME280;63257;55.082;38.772;2023-02-01T14:42:02;99010.63;;;0.92;65.62
71948;BME280;63257;55.082;38.772;2023-02-01T14:44:31;99012.44;;;0.90;66.63
71948;BME280;63257;55.082;38.772;2023-02-01T14:47:07;99013.25;;;0.92;66.90
71948;BME280;63257;55.082;38.772;2023-02-01T14:52:37;99010.56;;;0.95;66.99
71948;BME280;63257;55.082;38.772;2023-02-01T14:55:38;99021.81;;;0.95;66.40
71948;BME280;63257;55.082;38.772;2023-02-01T14:58:16;99022.69;;;0.94;66.75
71948;BME280;63257;55.082;38.772;2023-02-01T15:00:56;98996.28;;;0.80;66.94
71948;BME280;63257;55.082;38.772;2023-02-01T15:06:03;99003.84;;;0.88;67.15
71948;BME280;63257;55.082;38.772;2023-02-01T15:08:35;99009.66;;;0.96;67.08
71948;BME280;63257;55.082;38.772;2023-02-01T15:11:08;99013.47;;;0.84;66.96
71948;BME280;63257;55.082;38.772;2023-02-01T15:13:38;99012.53;;;0.87;67.66
71948;BME280;63257;55.082;38.772;2023-02-01T15:18:34;99016.28;;;0.76;67.63
71948;BME280;63257;55.082;38.772;2023-02-01T15:21:02;99011.09;;;0.76;67.58
71948;BME280;63257;55.082;38.772;2023-02-01T15:23:28;99010.59;;;0.93;66.99
71948;BME280;63257;55.082;38.772;2023-02-01T15:25:55;99010.69;;;0.90;66.78
71948;BME280;63257;55.082;38.772;2023-02-01T15:28:22;99012.44;;;0.90;66.97
71948;BME280;63257;55.082;38.772;2023-02-01T15:31:06;98984.31;;;0.74;67.02
71948;BME280;63257;55.082;38.772;2023-02-01T15:33:33;99012.59;;;0.83;67.02
71948;BME280;63257;55.082;38.772;2023-02-01T15:38:32;99021.34;;;0.81;66.91
71948;BME280;63257;55.082;38.772;2023-02-01T15:41:15;99024.72;;;0.84;67.10
71948;BME280;63257;55.082;38.772;2023-02-01T15:46:33;99006.03;;;0.72;67.18
71948;BME280;63257;55.082;38.772;2023-02-01T15:49:01;99018.75;;;0.81;67.94
71948;BME280;63257;55.082;38.772;2023-02-01T15:51:30;98999.81;;;0.77;66.46